Time,TemperatureF,DewpointF,PressureIn,WindDirection,WindDirectionDegrees,WindSpeedMPH,WindSpeedGustMPH,Humidity,HourlyPrecipIn,Conditions,Clouds,dailyrainin,SoftwareType,DateUTC
2013-03-03 00:01:00,5.0,0.5,30.14,North,0,0.0,0.0,81,0.00,,,0.00,WUHU216HW,2013-03-03 06:01:00,
2013-03-03 00:11:00,4.9,0.4,30.14,North,0,0.0,0.0,81,0.00,,,0.00,WUHU216HW,2013-03-03 06:11:00,
2013-03-03 00:22:00,4.7,0.2,30.14,North,0,0.0,0.0,81,0.00,,,0.00,WUHU216HW,2013-03-03 06:22:00,
2013-03-03 00:32:00,4.3,-0.1,30.13,North,0,0.0,0.0,81,0.00,,,0.00,WUHU216HW,2013-03-03 06:32:00,
2013-03-03 00:42:00,4.0,-0.4,30.13,North,0,0.0,0.0,81,0.00,,,0.00,WUHU216HW,2013-03-03 06:42:00,
2013-03-03 00:52:00,3.6,-0.8,30.12,North,0,0.0,0.0,81,0.00,,,0.00,WUHU216HW,2013-03-03 06:52:00,
2013-03-03 01:02:00,4.3,0.1,30.12,ENE,72,0.7,1.4,82,0.00,,,0.00,WUHU216HW,2013-03-03 07:02:00,
2013-03-03 01:12:00,4.3,0.1,30.13,NE,42,0.6,0.8,82,0.00,,,0.00,WUHU216HW,2013-03-03 07:12:00,
2013-03-03 01:22:00,4.3,0.1,30.12,North,0,0.0,0.0,82,0.00,,,0.00,WUHU216HW,2013-03-03 07:22:00,
2013-03-03 01:32:00,4.1,-0.1,30.12,NNE,23,0.2,0.2,82,0.00,,,0.00,WUHU216HW,2013-03-03 07:32:00,
2013-03-03 01:42:00,4.1,0.2,30.12,North,0,0.0,0.0,83,0.00,,,0.00,WUHU216HW,2013-03-03 07:42:00,
2013-03-03 01:52:00,4.0,0.1,30.11,North,0,0.0,0.0,83,0.00,,,0.00,WUHU216HW,2013-03-03 07:52:00,
2013-03-03 02:02:00,3.8,-0.4,30.11,North,0,0.0,0.0,82,0.00,,,0.00,WUHU216HW,2013-03-03 08:02:00,
2013-03-03 02:12:00,4.0,-0.2,30.11,North,0,0.0,0.0,82,0.00,,,0.00,WUHU216HW,2013-03-03 08:12:00,
2013-03-03 02:22:00,4.3,0.6,30.11,North,0,0.0,0.0,84,0.00,,,0.00,WUHU216HW,2013-03-03 08:22:00,
2013-03-03 02:32:00,4.5,0.8,30.11,North,0,0.0,0.0,84,0.00,,,0.00,WUHU216HW,2013-03-03 08:32:00,
2013-03-03 02:42:00,4.3,0.4,30.11,North,0,0.0,0.0,83,0.00,,,0.00,WUHU216HW,2013-03-03 08:42:00,
2013-03-03 02:52:00,4.3,0.4,30.10,North,0,0.2,0.2,83,0.00,,,0.00,WUHU216HW,2013-03-03 08:52:00,
2013-03-03 03:02:00,4.0,0.1,30.10,North,0,0.0,0.0,83,0.00,,,0.00,WUHU216HW,2013-03-03 09:02:00,
2013-03-03 03:12:00,3.8,-0.1,30.11,North,0,0.0,0.0,83,0.00,,,0.00,WUHU216HW,2013-03-03 09:12:00,
2013-03-03 03:22:00,3.2,-1.0,30.10,North,0,0.0,0.0,82,0.00,,,0.00,WUHU216HW,2013-03-03 09:22:00,
2013-03-03 03:32:00,2.9,-1.0,30.10,NE,56,0.3,0.4,83,0.00,,,0.00,WUHU216HW,2013-03-03 09:32:00,
2013-03-03 03:42:00,2.9,-0.8,30.10,ENE,68,0.4,0.4,84,0.00,,,0.00,WUHU216HW,2013-03-03 09:42:00,
2013-03-03 03:52:00,2.7,-1.2,30.10,NNE,23,0.2,0.2,83,0.00,,,0.00,WUHU216HW,2013-03-03 09:52:00,
2013-03-03 04:02:00,2.7,-1.0,30.10,NNE,23,0.2,0.2,84,0.00,,,0.00,WUHU216HW,2013-03-03 10:02:00,
2013-03-03 04:12:00,2.0,-2.1,30.11,North,0,0.0,0.0,82,0.00,,,0.00,WUHU216HW,2013-03-03 10:12:00,
2013-03-03 04:22:00,1.8,-2.1,30.10,North,0,0.0,0.0,83,0.00,,,0.00,WUHU216HW,2013-03-03 10:22:00,
2013-03-03 04:32:00,2.2,-1.7,30.11,North,0,0.0,0.0,83,0.00,,,0.00,WUHU216HW,2013-03-03 10:32:00,
2013-03-03 04:42:00,1.8,-2.1,30.11,North,0,0.0,0.0,83,0.00,,,0.00,WUHU216HW,2013-03-03 10:42:00,
2013-03-03 04:52:00,1.1,-3.0,30.11,North,0,0.2,0.2,82,0.00,,,0.00,WUHU216HW,2013-03-03 10:52:00,
2013-03-03 05:02:00,1.1,-2.8,30.11,North,0,0.0,0.0,83,0.00,,,0.00,WUHU216HW,2013-03-03 11:02:00,
2013-03-03 05:13:00,1.3,-2.6,30.11,North,0,0.0,0.0,83,0.00,,,0.00,WUHU216HW,2013-03-03 11:13:00,
2013-03-03 05:23:00,1.3,-2.8,30.11,North,0,0.0,0.0,82,0.00,,,0.00,WUHU216HW,2013-03-03 11:23:00,
2013-03-03 05:33:00,0.9,-3.2,30.11,North,0,0.0,0.0,82,0.00,,,0.00,WUHU216HW,2013-03-03 11:33:00,
2013-03-03 05:43:00,0.9,-3.2,30.12,North,0,0.0,0.0,82,0.00,,,0.00,WUHU216HW,2013-03-03 11:43:00,
2013-03-03 05:53:00,1.1,-3.0,30.12,North,0,0.0,0.0,82,0.00,,,0.00,WUHU216HW,2013-03-03 11:53:00,
2013-03-03 06:03:00,0.7,-3.4,30.12,North,0,0.0,0.0,82,0.00,,,0.00,WUHU216HW,2013-03-03 12:03:00,
2013-03-03 06:13:00,0.5,-3.6,30.12,North,0,0.0,0.0,82,0.00,,,0.00,WUHU216HW,2013-03-03 12:13:00,
2013-03-03 06:23:00,0.5,-3.6,30.13,North,0,0.0,0.0,82,0.00,,,0.00,WUHU216HW,2013-03-03 12:23:00,
2013-03-03 06:33:00,0.7,-3.4,30.12,North,0,0.0,0.0,82,0.00,,,0.00,WUHU216HW,2013-03-03 12:33:00,
2013-03-03 06:43:00,0.7,-3.4,30.12,North,0,0.0,0.0,82,0.00,,,0.00,WUHU216HW,2013-03-03 12:43:00,
2013-03-03 06:53:00,2.2,-1.4,30.13,North,0,0.0,0.0,84,0.00,,,0.00,WUHU216HW,2013-03-03 12:53:00,
2013-03-03 07:04:00,3.9,0.2,30.12,North,0,0.0,0.0,84,0.00,,,0.00,WUHU216HW,2013-03-03 13:04:00,
2013-03-03 07:14:00,8.2,4.7,30.13,North,0,0.0,0.0,85,0.00,,,0.00,WUHU216HW,2013-03-03 13:14:00,
2013-03-03 07:24:00,12.1,8.2,30.13,North,0,0.0,0.0,84,0.00,,,0.00,WUHU216HW,2013-03-03 13:24:00,
2013-03-03 07:34:00,14.4,10.0,30.13,NE,36,0.4,0.4,82,0.00,,,0.00,WUHU216HW,2013-03-03 13:34:00,
2013-03-03 07:44:00,16.7,12.0,30.13,NNE,31,0.4,0.4,81,0.00,,,0.00,WUHU216HW,2013-03-03 13:44:00,
2013-03-03 07:55:00,17.1,11.5,30.13,NNE,23,0.2,0.2,78,0.00,,,0.00,WUHU216HW,2013-03-03 13:55:00,
2013-03-03 08:05:00,13.8,7.5,30.13,North,0,0.3,0.4,75,0.00,,,0.00,WUHU216HW,2013-03-03 14:05:00,
2013-03-03 08:15:00,13.3,7.2,30.13,North,4,0.3,0.4,76,0.00,,,0.00,WUHU216HW,2013-03-03 14:15:00,
2013-03-03 08:25:00,12.7,6.7,30.13,North,0,0.8,1.8,76,0.00,,,0.00,WUHU216HW,2013-03-03 14:25:00,
2013-03-03 08:35:00,12.8,7.1,30.13,North,354,1.2,2.0,77,0.00,,,0.00,WUHU216HW,2013-03-03 14:35:00,
2013-03-03 08:45:00,13.7,7.9,30.12,North,355,1.5,3.0,77,0.00,,,0.00,WUHU216HW,2013-03-03 14:45:00,
2013-03-03 08:55:00,14.6,8.5,30.13,North,351,1.5,2.0,76,0.00,,,0.00,WUHU216HW,2013-03-03 14:55:00,
2013-03-03 09:05:00,14.8,8.4,30.13,North,359,2.0,2.8,75,0.00,,,0.00,WUHU216HW,2013-03-03 15:05:00,
2013-03-03 09:15:00,14.7,8.1,30.12,North,352,2.6,3.7,74,0.00,,,0.00,WUHU216HW,2013-03-03 15:15:00,
2013-03-03 09:25:00,15.3,8.7,30.12,North,349,2.2,3.7,74,0.00,,,0.00,WUHU216HW,2013-03-03 15:25:00,
2013-03-03 09:35:00,15.8,8.2,30.12,North,1,2.5,3.7,71,0.00,,,0.00,WUHU216HW,2013-03-03 15:35:00,
2013-03-03 09:45:00,16.3,8.7,30.12,North,351,2.6,5.2,71,0.00,,,0.00,WUHU216HW,2013-03-03 15:45:00,
2013-03-03 09:55:00,16.7,8.4,30.12,North,358,2.5,3.7,69,0.00,,,0.00,WUHU216HW,2013-03-03 15:55:00,
2013-03-03 10:05:00,17.4,8.8,30.12,North,1,2.1,3.4,68,0.00,,,0.00,WUHU216HW,2013-03-03 16:05:00,
2013-03-03 10:15:00,18.1,8.8,30.12,North,351,2.7,4.4,66,0.00,,,0.00,WUHU216HW,2013-03-03 16:15:00,
2013-03-03 10:25:00,17.9,8.7,30.12,North,352,3.0,3.7,66,0.00,,,0.00,WUHU216HW,2013-03-03 16:25:00,
2013-03-03 10:35:00,18.2,9.3,30.11,North,0,2.5,4.4,67,0.00,,,0.00,WUHU216HW,2013-03-03 16:35:00,
2013-03-03 10:45:00,18.4,9.5,30.11,North,357,3.1,4.7,67,0.00,,,0.00,WUHU216HW,2013-03-03 16:45:00,
2013-03-03 10:55:00,18.6,9.3,30.11,North,358,3.0,4.4,66,0.00,,,0.00,WUHU216HW,2013-03-03 16:55:00,
2013-03-03 11:05:00,19.1,9.5,30.11,North,356,3.0,4.4,65,0.00,,,0.00,WUHU216HW,2013-03-03 17:05:00,
2013-03-03 11:15:00,19.7,10.4,30.11,North,353,3.0,5.2,66,0.00,,,0.00,WUHU216HW,2013-03-03 17:15:00,
2013-03-03 11:25:00,19.8,9.8,30.11,North,359,2.8,3.7,64,0.00,,,0.00,WUHU216HW,2013-03-03 17:25:00,
2013-03-03 11:35:00,19.8,8.7,30.11,North,355,3.1,3.7,61,0.00,,,0.00,WUHU216HW,2013-03-03 17:35:00,
2013-03-03 11:45:00,20.7,8.4,30.11,North,353,2.6,4.0,58,0.00,,,0.00,WUHU216HW,2013-03-03 17:45:00,
2013-03-03 11:55:00,21.1,8.8,30.11,NNW,338,2.6,4.2,58,0.00,,,0.00,WUHU216HW,2013-03-03 17:55:00,
2013-03-03 12:05:00,21.3,7.4,30.11,NNW,343,2.5,3.7,54,0.00,,,0.00,WUHU216HW,2013-03-03 18:05:00,
2013-03-03 12:15:00,22.0,6.7,30.10,NNW,340,2.4,3.7,51,0.00,,,0.00,WUHU216HW,2013-03-03 18:15:00,
2013-03-03 12:25:00,22.2,5.1,30.09,NNW,335,2.5,3.7,47,0.00,,,0.00,WUHU216HW,2013-03-03 18:25:00,
2013-03-03 12:35:00,22.2,3.6,30.09,NNW,342,2.4,3.0,44,0.00,,,0.00,WUHU216HW,2013-03-03 18:35:00,
2013-03-03 12:45:00,22.7,4.1,30.09,NNW,342,2.6,3.7,44,0.00,,,0.00,WUHU216HW,2013-03-03 18:45:00,
2013-03-03 12:55:00,22.7,4.6,30.08,NNW,347,2.6,3.7,45,0.00,,,0.00,WUHU216HW,2013-03-03 18:55:00,
2013-03-03 13:05:00,22.5,2.9,30.08,North,350,3.0,4.2,42,0.00,,,0.00,WUHU216HW,2013-03-03 19:05:00,
2013-03-03 13:15:00,23.1,4.5,30.08,North,352,2.7,4.0,44,0.00,,,0.00,WUHU216HW,2013-03-03 19:15:00,
2013-03-03 13:25:00,23.0,3.8,30.08,NNW,347,2.7,3.4,43,0.00,,,0.00,WUHU216HW,2013-03-03 19:25:00,
2013-03-03 13:36:00,23.0,4.3,30.08,NNW,348,2.7,3.4,44,0.00,,,0.00,WUHU216HW,2013-03-03 19:36:00,
2013-03-03 13:46:00,23.4,4.7,30.08,North,352,2.4,3.2,44,0.00,,,0.00,WUHU216HW,2013-03-03 19:46:00,
2013-03-03 13:56:00,23.4,4.7,30.08,NNW,340,2.7,3.7,44,0.00,,,0.00,WUHU216HW,2013-03-03 19:56:00,
2013-03-03 14:06:00,23.4,4.7,30.08,NNW,348,2.5,3.4,44,0.00,,,0.00,WUHU216HW,2013-03-03 20:06:00,
2013-03-03 14:16:00,23.4,5.3,30.08,NNW,346,2.1,3.0,45,0.00,,,0.00,WUHU216HW,2013-03-03 20:16:00,
2013-03-03 14:26:00,23.4,4.8,30.07,NNW,344,1.7,2.4,44,0.00,,,0.00,WUHU216HW,2013-03-03 20:26:00,
2013-03-03 14:36:00,23.8,5.6,30.07,NNW,332,2.0,2.8,45,0.00,,,0.00,WUHU216HW,2013-03-03 20:36:00,
2013-03-03 14:46:00,23.6,5.9,30.07,North,349,2.0,3.2,46,0.00,,,0.00,WUHU216HW,2013-03-03 20:46:00,
2013-03-03 14:56:00,23.8,7.1,30.07,NNW,338,2.0,3.7,48,0.00,,,0.00,WUHU216HW,2013-03-03 20:56:00,
2013-03-03 15:06:00,23.8,7.1,30.07,NNW,341,1.8,2.8,48,0.00,,,0.00,WUHU216HW,2013-03-03 21:06:00,
2013-03-03 15:16:00,23.8,7.1,30.07,NNW,337,1.9,4.4,48,0.00,,,0.00,WUHU216HW,2013-03-03 21:16:00,
2013-03-03 15:26:00,23.7,7.8,30.08,NNW,333,2.0,3.0,50,0.00,,,0.00,WUHU216HW,2013-03-03 21:26:00,
2013-03-03 15:36:00,23.4,8.0,30.07,NNW,340,2.0,2.4,51,0.00,,,0.00,WUHU216HW,2013-03-03 21:36:00,
2013-03-03 15:46:00,23.6,8.2,30.08,NNW,340,1.8,2.2,51,0.00,,,0.00,WUHU216HW,2013-03-03 21:46:00,
2013-03-03 15:56:00,23.2,7.9,30.07,NNW,348,1.9,2.8,51,0.00,,,0.00,WUHU216HW,2013-03-03 21:56:00,
2013-03-03 16:06:00,23.3,8.4,30.07,North,355,1.7,2.4,52,0.00,,,0.00,WUHU216HW,2013-03-03 22:06:00,
2013-03-03 16:16:00,23.3,8.8,30.08,NNW,345,1.8,2.2,53,0.00,,,0.00,WUHU216HW,2013-03-03 22:16:00,
2013-03-03 16:27:00,23.3,9.3,30.07,North,353,1.5,2.0,54,0.00,,,0.00,WUHU216HW,2013-03-03 22:27:00,
2013-03-03 16:37:00,23.1,9.1,30.07,NNW,339,1.4,1.8,54,0.00,,,0.00,WUHU216HW,2013-03-03 22:37:00,
2013-03-03 16:47:00,22.9,8.8,30.07,NNW,347,1.3,2.0,54,0.00,,,0.00,WUHU216HW,2013-03-03 22:47:00,
2013-03-03 16:57:00,23.0,9.4,30.07,NNW,347,1.4,2.8,55,0.00,,,0.00,WUHU216HW,2013-03-03 22:57:00,
2013-03-03 17:07:00,22.7,9.1,30.07,North,357,1.2,2.2,55,0.00,,,0.00,WUHU216HW,2013-03-03 23:07:00,
2013-03-03 17:17:00,22.3,8.7,30.08,North,357,0.8,1.8,55,0.00,,,0.00,WUHU216HW,2013-03-03 23:17:00,
2013-03-03 17:27:00,21.8,8.7,30.08,NNW,346,0.8,1.2,56,0.00,,,0.00,WUHU216HW,2013-03-03 23:27:00,
2013-03-03 17:37:00,21.2,8.5,30.08,NW,318,0.6,1.2,57,0.00,,,0.00,WUHU216HW,2013-03-03 23:37:00,
2013-03-03 17:47:00,19.8,7.2,30.08,NNW,338,0.3,0.4,57,0.00,,,0.00,WUHU216HW,2013-03-03 23:47:00,
2013-03-03 17:57:00,18.9,7.5,30.08,NW,315,0.2,0.2,60,0.00,,,0.00,WUHU216HW,2013-03-03 23:57:00,
2013-03-03 18:07:00,18.4,7.4,30.08,NW,315,0.2,0.2,61,0.00,,,0.00,WUHU216HW,2013-03-04 00:07:00,
2013-03-03 18:17:00,17.6,6.6,30.09,NNW,338,0.2,0.2,61,0.00,,,0.00,WUHU216HW,2013-03-04 00:17:00,
2013-03-03 18:27:00,17.1,7.5,30.08,North,0,0.0,0.0,65,0.00,,,0.00,WUHU216HW,2013-03-04 00:27:00,
2013-03-03 18:38:00,17.1,7.2,30.08,North,353,0.2,0.2,64,0.00,,,0.00,WUHU216HW,2013-03-04 00:38:00,
2013-03-03 18:48:00,16.4,6.5,30.09,North,4,0.3,0.4,64,0.00,,,0.00,WUHU216HW,2013-03-04 00:48:00,
2013-03-03 18:58:00,14.8,4.7,30.09,North,0,0.0,0.0,63,0.00,,,0.00,WUHU216HW,2013-03-04 00:58:00,
2013-03-03 19:08:00,13.7,4.0,30.09,North,0,0.0,0.0,64,0.00,,,0.00,WUHU216HW,2013-03-04 01:08:00,
2013-03-03 19:18:00,12.8,3.8,30.09,NNE,23,0.4,0.4,66,0.00,,,0.00,WUHU216HW,2013-03-04 01:18:00,
2013-03-03 19:28:00,13.0,4.3,30.09,NE,41,1.3,1.8,67,0.00,,,0.00,WUHU216HW,2013-03-04 01:28:00,
2013-03-03 19:38:00,12.8,4.4,30.08,NE,42,1.4,2.0,68,0.00,,,0.00,WUHU216HW,2013-03-04 01:38:00,
2013-03-03 19:48:00,12.1,3.4,30.08,NE,48,1.5,1.8,67,0.00,,,0.00,WUHU216HW,2013-03-04 01:48:00,
2013-03-03 19:58:00,11.9,3.5,30.09,NNE,29,1.7,2.0,68,0.00,,,0.00,WUHU216HW,2013-03-04 01:58:00,
2013-03-03 20:08:00,11.5,3.2,30.09,ENE,60,1.0,1.4,68,0.00,,,0.00,WUHU216HW,2013-03-04 02:08:00,
2013-03-03 20:18:00,10.6,2.6,30.09,ENE,68,1.2,1.2,69,0.00,,,0.00,WUHU216HW,2013-03-04 02:18:00,
2013-03-03 20:28:00,9.9,1.9,30.08,NE,56,1.7,2.2,69,0.00,,,0.00,WUHU216HW,2013-03-04 02:28:00,
2013-03-03 20:38:00,10.1,2.7,30.08,ENE,68,1.8,2.2,71,0.00,,,0.00,WUHU216HW,2013-03-04 02:38:00,
2013-03-03 20:48:00,11.0,4.2,30.08,ENE,68,2.0,2.4,73,0.00,,,0.00,WUHU216HW,2013-03-04 02:48:00,
2013-03-03 20:58:00,10.6,3.5,30.09,ENE,68,1.2,1.8,72,0.00,,,0.00,WUHU216HW,2013-03-04 02:58:00,
2013-03-03 21:08:00,9.7,2.6,30.09,SSE,147,0.6,1.0,72,0.00,,,0.00,WUHU216HW,2013-03-04 03:08:00,
2013-03-03 21:18:00,9.5,2.7,30.10,North,0,0.0,0.0,73,0.00,,,0.00,WUHU216HW,2013-03-04 03:18:00,
2013-03-03 21:28:00,9.0,2.8,30.10,NW,314,0.4,1.0,75,0.00,,,0.00,WUHU216HW,2013-03-04 03:28:00,
2013-03-03 21:38:00,8.3,1.6,30.10,North,0,0.0,0.0,73,0.00,,,0.00,WUHU216HW,2013-03-04 03:38:00,
2013-03-03 21:48:00,7.7,1.8,30.10,North,0,0.8,0.8,76,0.00,,,0.00,WUHU216HW,2013-03-04 03:48:00,
2013-03-03 21:58:00,7.2,1.4,30.10,NNW,338,0.2,0.2,76,0.00,,,0.00,WUHU216HW,2013-03-04 03:58:00,
2013-03-03 22:08:00,7.0,0.9,30.10,NNE,32,1.0,1.2,75,0.00,,,0.00,WUHU216HW,2013-03-04 04:08:00,
2013-03-03 22:18:00,7.4,1.3,30.09,NNE,14,1.0,1.8,75,0.00,,,0.00,WUHU216HW,2013-03-04 04:18:00,
2013-03-03 22:28:00,7.2,1.1,30.09,NE,53,1.3,2.0,75,0.00,,,0.00,WUHU216HW,2013-03-04 04:28:00,
2013-03-03 22:38:00,6.7,0.6,30.09,NE,53,0.7,1.0,75,0.00,,,0.00,WUHU216HW,2013-03-04 04:38:00,
2013-03-03 22:48:00,6.3,0.2,30.09,NE,45,0.6,1.2,75,0.00,,,0.00,WUHU216HW,2013-03-04 04:48:00,
2013-03-03 22:58:00,5.9,0.1,30.08,ENE,62,1.3,1.4,76,0.00,,,0.00,WUHU216HW,2013-03-04 04:58:00,
2013-03-03 23:08:00,5.6,-0.5,30.08,NE,56,1.3,2.0,75,0.00,,,0.00,WUHU216HW,2013-03-04 05:08:00,
2013-03-03 23:18:00,5.0,-0.5,30.08,NNE,23,0.2,0.2,77,0.00,,,0.00,WUHU216HW,2013-03-04 05:18:00,
2013-03-03 23:28:00,4.7,-0.8,30.08,North,0,0.0,0.0,77,0.00,,,0.00,WUHU216HW,2013-03-04 05:28:00,
2013-03-03 23:38:00,4.7,-1.1,30.08,North,0,0.0,0.0,76,0.00,,,0.00,WUHU216HW,2013-03-04 05:38:00,
2013-03-03 23:49:00,4.9,-0.6,30.08,North,0,0.0,0.0,77,0.00,,,0.00,WUHU216HW,2013-03-04 05:49:00,
2013-03-03 23:59:00,4.5,-1.3,30.09,North,0,0.0,0.0,76,0.00,,,0.00,WUHU216HW,2013-03-04 05:59:00,